createdAt,value
2023-05-06T00:00:27.396Z,1006.36
2023-05-06T00:01:27.215Z,1006.37
2023-05-06T00:02:27.244Z,1006.40
2023-05-06T00:03:27.352Z,1006.41
2023-05-06T00:04:27.192Z,1006.36
2023-05-06T00:05:27.185Z,1006.39
2023-05-06T00:06:27.228Z,1006.41
2023-05-06T00:07:27.167Z,1006.44
2023-05-06T00:08:27.118Z,1006.40
2023-05-06T00:09:27.055Z,1006.47
2023-05-06T00:10:27.042Z,1006.43
2023-05-06T00:11:27.013Z,1006.46
2023-05-06T00:12:27.073Z,1006.41
2023-05-06T00:13:27.272Z,1006.46
2023-05-06T00:14:26.957Z,1006.46
2023-05-06T00:15:26.961Z,1006.48
2023-05-06T00:16:26.898Z,1006.45
2023-05-06T00:17:26.917Z,1006.46
2023-05-06T00:18:26.945Z,1006.45
2023-05-06T00:19:26.886Z,1006.45
2023-05-06T00:20:26.819Z,1006.47
2023-05-06T00:21:26.811Z,1006.44
2023-05-06T00:22:26.799Z,1006.46
2023-05-06T00:23:26.846Z,1006.45
2023-05-06T00:24:26.749Z,1006.44
2023-05-06T00:25:26.876Z,1006.49
2023-05-06T00:26:26.727Z,1006.43
2023-05-06T00:27:26.698Z,1006.49
2023-05-06T00:28:26.676Z,1006.44
2023-05-06T00:29:26.755Z,1006.45
2023-05-06T00:30:26.724Z,1006.46
2023-05-06T00:31:26.743Z,1006.41
2023-05-06T00:32:26.759Z,1006.41
2023-05-06T00:33:26.588Z,1006.42
2023-05-06T00:34:26.562Z,1006.42
2023-05-06T00:35:26.637Z,1006.43
2023-05-06T00:36:26.611Z,1006.36
2023-05-06T00:37:26.522Z,1006.42
2023-05-06T00:38:26.616Z,1006.45
2023-05-06T00:39:26.495Z,1006.49
2023-05-06T00:40:26.487Z,1006.49
2023-05-06T00:41:26.556Z,1006.46
2023-05-06T00:42:26.479Z,1006.50
2023-05-06T00:43:26.482Z,1006.42
2023-05-06T00:44:26.447Z,1006.43
2023-05-06T00:45:26.587Z,1006.43
2023-05-06T00:46:26.509Z,1006.42
2023-05-06T00:47:26.473Z,1006.44
2023-05-06T00:48:26.397Z,1006.48
2023-05-06T00:49:26.375Z,1006.47
2023-05-06T00:50:26.417Z,1006.46
2023-05-06T00:51:26.490Z,1006.46
2023-05-06T00:52:26.433Z,1006.48
2023-05-06T00:53:26.340Z,1006.53
2023-05-06T00:54:26.328Z,1006.43
2023-05-06T00:55:26.756Z,1006.45
2023-05-06T00:56:26.364Z,1006.45
2023-05-06T00:57:26.283Z,1006.47
2023-05-06T00:58:26.392Z,1006.47
2023-05-06T00:59:26.247Z,1006.45
2023-05-06T01:00:26.271Z,1006.46
2023-05-06T01:01:26.747Z,1006.45
2023-05-06T01:02:33.267Z,1006.47
2023-05-06T01:03:27.355Z,1006.59
2023-05-06T01:04:26.400Z,1006.50
2023-05-06T01:05:26.225Z,1006.54
2023-05-06T01:06:26.155Z,1006.54
2023-05-06T01:07:26.163Z,1006.55
2023-05-06T01:08:26.150Z,1006.53
2023-05-06T01:09:26.195Z,1006.48
2023-05-06T01:10:26.255Z,1006.43
2023-05-06T01:11:26.123Z,1006.36
2023-05-06T01:12:26.098Z,1006.39
2023-05-06T01:13:26.106Z,1006.43
2023-05-06T01:14:26.074Z,1006.33
2023-05-06T01:15:26.140Z,1006.40
2023-05-06T01:16:26.145Z,1006.35
2023-05-06T01:17:26.117Z,1006.32
2023-05-06T01:18:26.047Z,1006.33
2023-05-06T01:19:26.046Z,1006.31
2023-05-06T01:20:26.029Z,1006.30
2023-05-06T01:21:26.096Z,1006.38
2023-05-06T01:22:26.024Z,1006.38
2023-05-06T01:23:26.172Z,1006.38
2023-05-06T01:24:25.987Z,1006.36
2023-05-06T01:25:25.983Z,1006.42
2023-05-06T01:26:25.972Z,1006.39
2023-05-06T01:27:25.931Z,1006.38
2023-05-06T01:28:25.910Z,1006.41
2023-05-06T01:29:26.081Z,1006.39
2023-05-06T01:30:25.951Z,1006.41
2023-05-06T01:31:25.945Z,1006.41
2023-05-06T01:32:25.898Z,1006.34
2023-05-06T01:33:25.943Z,1006.37
2023-05-06T01:34:25.865Z,1006.33
2023-05-06T01:35:26.004Z,1006.29
2023-05-06T01:36:25.809Z,1006.31
2023-05-06T01:37:25.792Z,1006.29
2023-05-06T01:38:25.782Z,1006.32
2023-05-06T01:39:25.871Z,1006.32
2023-05-06T01:40:25.759Z,1006.31
2023-05-06T01:41:25.840Z,1006.27
2023-05-06T01:42:25.764Z,1006.37
2023-05-06T01:43:25.745Z,1006.31
2023-05-06T01:44:25.781Z,1006.36
2023-05-06T01:45:25.799Z,1006.35
2023-05-06T01:46:25.764Z,1006.43
2023-05-06T01:47:25.929Z,1006.37
2023-05-06T01:48:25.749Z,1006.43
2023-05-06T01:49:25.789Z,1006.36
2023-05-06T01:50:25.726Z,1006.40
2023-05-06T01:51:25.649Z,1006.39
2023-05-06T01:52:25.644Z,1006.39
2023-05-06T01:53:25.628Z,1006.45
2023-05-06T01:54:25.607Z,1006.42
2023-05-06T01:55:25.644Z,1006.42
2023-05-06T01:56:25.756Z,1006.41
2023-05-06T01:57:25.591Z,1006.46
2023-05-06T01:58:25.602Z,1006.45
2023-05-06T01:59:25.594Z,1006.43
2023-05-06T02:00:25.581Z,1006.40
2023-05-06T02:01:25.653Z,1006.39
2023-05-06T02:02:25.657Z,1006.42
2023-05-06T02:03:25.658Z,1006.41
2023-05-06T02:04:25.543Z,1006.44
2023-05-06T02:05:25.631Z,1006.42
2023-05-06T02:06:25.579Z,1006.45
2023-05-06T02:07:25.508Z,1006.45
2023-05-06T02:08:25.546Z,1006.47
2023-05-06T02:09:25.553Z,1006.49
2023-05-06T02:10:25.702Z,1006.44
2023-05-06T02:11:25.594Z,1006.45
2023-05-06T02:12:25.509Z,1006.50
2023-05-06T02:13:25.530Z,1006.45
2023-05-06T02:14:25.514Z,1006.44
2023-05-06T02:15:25.498Z,1006.52
2023-05-06T02:16:25.610Z,1006.49
2023-05-06T02:17:25.536Z,1006.44
2023-05-06T02:18:25.548Z,1006.51
2023-05-06T02:19:25.538Z,1006.47
2023-05-06T02:20:25.540Z,1006.50
2023-05-06T02:21:25.631Z,1006.48
2023-05-06T02:22:25.659Z,1006.51
2023-05-06T02:23:25.519Z,1006.54
2023-05-06T02:24:25.477Z,1006.49
2023-05-06T02:25:25.471Z,1006.52
2023-05-06T02:26:25.591Z,1006.51
2023-05-06T02:27:25.489Z,1006.49
2023-05-06T02:28:25.585Z,1006.48
2023-05-06T02:29:25.463Z,1006.43
2023-05-06T02:30:25.469Z,1006.45
2023-05-06T02:31:25.545Z,1006.43
2023-05-06T02:32:25.463Z,1006.48
2023-05-06T02:33:25.551Z,1006.48
2023-05-06T02:34:25.489Z,1006.47
2023-05-06T02:35:25.417Z,1006.48
2023-05-06T02:36:25.462Z,1006.52
2023-05-06T02:37:25.499Z,1006.50
2023-05-06T02:38:25.404Z,1006.46
2023-05-06T02:39:25.509Z,1006.49
2023-05-06T02:40:25.369Z,1006.48
2023-05-06T02:41:25.440Z,1006.43
2023-05-06T02:42:25.408Z,1006.47
2023-05-06T02:43:25.374Z,1006.45
2023-05-06T02:44:25.358Z,1006.40
2023-05-06T02:45:25.364Z,1006.38
2023-05-06T02:46:25.489Z,1006.42
2023-05-06T02:47:25.510Z,1006.42
2023-05-06T02:48:25.362Z,1006.43
2023-05-06T02:49:25.488Z,1006.47
2023-05-06T02:50:25.482Z,1006.50
2023-05-06T02:51:25.358Z,1006.47
2023-05-06T02:52:25.438Z,1006.46
2023-05-06T02:53:25.489Z,1006.53
2023-05-06T02:54:25.422Z,1006.52
2023-05-06T02:55:25.329Z,1006.49
2023-05-06T02:56:25.327Z,1006.50
2023-05-06T02:57:25.389Z,1006.44
2023-05-06T02:58:25.482Z,1006.47
2023-05-06T02:59:25.355Z,1006.46
2023-05-06T03:00:25.329Z,1006.47
2023-05-06T03:01:25.327Z,1006.43
2023-05-06T03:02:25.388Z,1006.46
2023-05-06T03:03:25.309Z,1006.50
2023-05-06T03:04:26.274Z,1006.49
2023-05-06T03:05:25.740Z,1006.48
2023-05-06T03:06:25.376Z,1006.52
2023-05-06T03:07:25.376Z,1006.51
2023-05-06T03:08:25.403Z,1006.57
2023-05-06T03:09:25.436Z,1006.56
2023-05-06T03:10:25.988Z,1006.51
2023-05-06T03:11:25.312Z,1006.59
2023-05-06T03:12:26.849Z,1006.58
2023-05-06T03:13:25.400Z,1006.57
2023-05-06T03:14:25.377Z,1006.55
2023-05-06T03:15:25.532Z,1006.64
2023-05-06T03:16:25.406Z,1006.60
2023-05-06T03:17:25.465Z,1006.63
2023-05-06T03:18:25.378Z,1006.58
2023-05-06T03:19:25.342Z,1006.61
2023-05-06T03:20:25.373Z,1006.65
2023-05-06T03:21:25.441Z,1006.65
2023-05-06T03:22:25.390Z,1006.63
2023-05-06T03:23:25.373Z,1006.63
2023-05-06T03:24:25.358Z,1006.66
2023-05-06T03:25:25.438Z,1006.66
2023-05-06T03:26:25.394Z,1006.72
2023-05-06T03:27:25.367Z,1006.72
2023-05-06T03:28:25.451Z,1006.66
2023-05-06T03:29:25.492Z,1006.65
2023-05-06T03:30:25.375Z,1006.65
2023-05-06T03:31:25.475Z,1006.59
2023-05-06T03:32:25.414Z,1006.58
2023-05-06T03:33:25.382Z,1006.57
2023-05-06T03:34:25.348Z,1006.53
2023-05-06T03:35:25.349Z,1006.51
2023-05-06T03:36:25.499Z,1006.51
2023-05-06T03:37:25.501Z,1286.17
2023-05-06T03:38:25.395Z,1286.17
2023-05-06T03:39:25.327Z,1286.17
2023-05-06T03:40:25.343Z,1286.17
2023-05-06T03:41:25.410Z,1286.17
2023-05-06T03:42:25.328Z,1286.17
2023-05-06T03:43:25.440Z,1286.17
2023-05-06T03:44:25.403Z,1286.17
2023-05-06T03:45:25.341Z,1286.17
2023-05-06T03:46:25.403Z,1286.17
2023-05-06T03:47:25.437Z,1286.17
2023-05-06T03:48:25.349Z,1286.17
2023-05-06T03:49:25.382Z,1286.17
2023-05-06T03:50:25.346Z,1286.17
2023-05-06T03:51:25.403Z,1286.17
2023-05-06T03:52:25.323Z,1286.17
2023-05-06T03:53:25.330Z,1286.17
2023-05-06T03:54:25.398Z,1286.17
2023-05-06T03:55:25.445Z,1286.17
2023-05-06T03:56:25.315Z,1286.17
2023-05-06T03:57:25.513Z,1286.17
2023-05-06T03:58:25.329Z,1286.17
2023-05-06T03:59:25.385Z,1286.17
2023-05-06T04:00:25.340Z,1286.17
2023-05-06T04:01:25.447Z,1286.17
2023-05-06T04:02:25.594Z,1286.17
2023-05-06T04:03:25.382Z,1286.17
2023-05-06T04:04:25.396Z,1286.17
2023-05-06T04:05:25.355Z,1286.17
2023-05-06T04:06:25.344Z,1286.17
2023-05-06T04:07:25.335Z,1286.17
2023-05-06T04:08:25.427Z,1286.17
2023-05-06T04:09:25.414Z,1286.17
2023-05-06T04:10:25.434Z,1286.17
2023-05-06T04:11:25.354Z,1286.17
2023-05-06T04:12:25.376Z,1286.17
2023-05-06T04:13:25.391Z,1286.17
2023-05-06T04:14:25.491Z,1286.17
2023-05-06T04:15:25.469Z,1286.17
2023-05-06T04:16:25.769Z,1286.17
2023-05-06T04:17:25.384Z,1286.17
2023-05-06T04:18:25.407Z,1286.17
2023-05-06T04:19:25.359Z,1286.17
2023-05-06T04:20:25.454Z,1286.17
2023-05-06T04:21:25.402Z,1286.17
2023-05-06T04:22:25.429Z,1286.17
2023-05-06T04:23:25.490Z,1286.17
2023-05-06T04:24:25.773Z,1286.17
2023-05-06T04:25:25.578Z,1286.17
2023-05-06T04:26:25.357Z,1286.17
2023-05-06T04:27:25.368Z,1286.17
2023-05-06T04:28:25.355Z,1286.17
2023-05-06T04:29:25.571Z,1286.17
2023-05-06T04:30:25.526Z,1286.17
2023-05-06T04:31:25.501Z,1286.17
2023-05-06T04:32:25.740Z,1286.17
2023-05-06T04:33:25.361Z,1286.17
2023-05-06T04:34:25.374Z,1286.17
2023-05-06T04:35:25.408Z,1286.17
2023-05-06T04:36:25.357Z,1286.17
2023-05-06T04:37:25.452Z,1286.17
2023-05-06T04:38:25.361Z,1286.17
2023-05-06T04:39:25.346Z,1286.17
2023-05-06T04:40:25.338Z,1286.17
2023-05-06T04:41:25.360Z,1286.17
2023-05-06T04:42:25.421Z,1286.17
2023-05-06T04:43:25.400Z,1286.17
2023-05-06T04:44:25.475Z,1286.17
2023-05-06T04:45:25.491Z,1286.17
2023-05-06T04:46:25.419Z,1286.17
2023-05-06T04:47:25.441Z,1286.17
2023-05-06T04:48:25.341Z,1286.17
2023-05-06T04:49:25.342Z,1286.17
2023-05-06T04:50:25.317Z,1286.17
2023-05-06T04:51:25.331Z,1286.17
2023-05-06T04:52:25.449Z,1286.17
2023-05-06T04:53:25.384Z,1286.17
2023-05-06T04:54:25.386Z,1286.17
2023-05-06T04:55:25.385Z,1286.17
2023-05-06T04:56:25.341Z,1286.17
2023-05-06T04:57:25.393Z,1286.17
2023-05-06T04:58:25.329Z,1286.17
2023-05-06T04:59:25.310Z,1286.17
2023-05-06T05:00:25.299Z,1286.17
2023-05-06T05:01:25.480Z,1286.17
2023-05-06T05:02:25.478Z,1286.17
2023-05-06T05:03:25.517Z,1286.17
2023-05-06T05:04:25.370Z,1286.17
2023-05-06T05:05:25.307Z,1286.17
2023-05-06T05:06:25.288Z,1286.17
2023-05-06T05:07:25.346Z,1286.17
2023-05-06T05:08:25.317Z,1286.17
2023-05-06T05:09:25.316Z,1286.17
2023-05-06T05:10:25.253Z,1286.17
2023-05-06T05:11:25.258Z,1286.17
2023-05-06T05:12:25.237Z,1286.17
2023-05-06T05:13:25.327Z,1286.17
2023-05-06T05:14:25.228Z,1286.17
2023-05-06T05:15:25.288Z,1286.17
2023-05-06T05:16:25.286Z,1286.17
2023-05-06T05:17:25.443Z,1286.17
2023-05-06T05:18:25.241Z,1286.17
2023-05-06T05:19:25.213Z,1286.17
2023-05-06T05:20:25.259Z,1286.17
2023-05-06T05:21:25.169Z,1286.17
2023-05-06T05:22:25.263Z,1286.17
2023-05-06T05:23:25.240Z,1286.17
2023-05-06T05:24:25.152Z,1286.17
2023-05-06T05:25:25.567Z,1286.17
2023-05-06T05:26:25.127Z,1286.17
2023-05-06T05:27:25.187Z,1286.17
2023-05-06T05:28:25.102Z,1286.17
2023-05-06T05:29:25.079Z,1286.17
2023-05-06T05:30:25.127Z,1286.17
2023-05-06T05:31:25.118Z,1286.17
2023-05-06T05:32:25.111Z,1286.17
2023-05-06T05:33:25.104Z,1286.17
2023-05-06T05:34:25.025Z,1286.17
2023-05-06T05:35:25.067Z,1286.17
2023-05-06T05:36:25.036Z,1286.17
2023-05-06T05:37:25.002Z,1286.17
2023-05-06T05:38:24.981Z,1286.17
2023-05-06T05:39:24.959Z,1286.17
2023-05-06T05:40:24.905Z,1286.17
2023-05-06T05:41:24.872Z,1286.17
2023-05-06T05:42:24.940Z,1286.17
2023-05-06T05:43:24.887Z,1286.17
2023-05-06T05:44:24.813Z,1286.17
2023-05-06T05:45:24.793Z,1286.17
2023-05-06T05:46:24.802Z,1286.17
2023-05-06T05:47:24.835Z,1286.17
2023-05-06T05:48:24.750Z,1286.17
2023-05-06T05:49:24.925Z,1286.17
2023-05-06T05:50:24.894Z,1286.17
2023-05-06T05:51:24.675Z,1286.17
2023-05-06T05:52:24.680Z,1286.17
2023-05-06T05:53:24.653Z,1286.17
2023-05-06T05:54:24.642Z,1286.17
2023-05-06T05:55:24.586Z,1286.17
2023-05-06T05:56:24.615Z,1286.17
2023-05-06T05:57:24.697Z,1286.17
2023-05-06T05:58:24.518Z,1286.17
2023-05-06T05:59:24.482Z,1286.17
2023-05-06T06:00:24.449Z,1286.17
2023-05-06T06:01:24.630Z,1286.17
2023-05-06T06:02:24.504Z,1286.17
2023-05-06T06:03:24.499Z,1286.17
2023-05-06T06:04:24.430Z,1286.17
2023-05-06T06:05:24.303Z,1286.17
2023-05-06T06:06:24.286Z,1286.17
2023-05-06T06:07:24.353Z,1286.17
2023-05-06T06:08:24.218Z,1286.17
2023-05-06T06:09:24.290Z,1286.17
2023-05-06T06:10:24.225Z,1286.17
2023-05-06T06:11:24.588Z,1286.17
2023-05-06T06:12:24.136Z,1286.17
2023-05-06T06:13:25.310Z,1286.17
2023-05-06T06:14:24.069Z,1286.17
2023-05-06T06:15:24.028Z,1286.17
2023-05-06T06:16:24.051Z,1286.17
2023-05-06T06:17:24.113Z,1286.17
2023-05-06T06:18:23.903Z,1286.17
2023-05-06T06:19:23.854Z,1286.17
2023-05-06T06:20:23.822Z,1286.17
2023-05-06T06:21:23.988Z,1286.17
2023-05-06T06:22:23.962Z,1286.17
2023-05-06T06:23:23.708Z,1286.17
2023-05-06T06:24:23.699Z,1286.17
2023-05-06T06:25:23.655Z,1286.17
2023-05-06T06:26:23.676Z,1286.17
2023-05-06T06:27:23.578Z,1286.17
2023-05-06T06:28:23.565Z,1286.17
2023-05-06T06:29:23.628Z,1286.17
2023-05-06T06:30:23.528Z,1286.17
2023-05-06T06:31:23.521Z,1286.17
2023-05-06T06:32:23.456Z,1286.17
2023-05-06T06:33:24.130Z,1286.17
2023-05-06T06:34:23.312Z,1286.17
2023-05-06T06:35:23.323Z,1286.17
2023-05-06T06:36:23.264Z,1286.17
2023-05-06T06:37:23.512Z,1286.17
2023-05-06T06:38:23.262Z,1286.17
2023-05-06T06:39:23.158Z,1286.17
2023-05-06T06:40:23.086Z,1286.17
2023-05-06T06:41:23.022Z,1286.17
2023-05-06T06:42:22.994Z,1286.17
2023-05-06T06:43:23.097Z,1286.17
2023-05-06T06:44:22.940Z,1286.17
2023-05-06T06:45:22.908Z,1286.17
2023-05-06T06:46:22.864Z,1286.17
2023-05-06T06:47:22.742Z,1286.17
2023-05-06T06:48:22.814Z,1286.17
2023-05-06T06:49:22.648Z,1286.17
2023-05-06T06:50:22.895Z,1286.17
2023-05-06T06:51:22.687Z,1286.17
2023-05-06T06:52:22.574Z,1286.17
2023-05-06T06:53:22.632Z,1286.17
2023-05-06T06:54:22.400Z,1286.17
2023-05-06T06:55:22.525Z,1286.17
2023-05-06T06:56:22.319Z,1286.17
2023-05-06T06:57:22.348Z,1286.17
2023-05-06T06:58:22.276Z,1286.17
2023-05-06T06:59:22.172Z,1286.17
2023-05-06T07:00:22.167Z,1286.17
2023-05-06T07:01:22.386Z,1286.17
2023-05-06T07:02:22.039Z,1286.17
2023-05-06T07:03:22.216Z,1286.17
2023-05-06T07:04:21.977Z,1286.17
2023-05-06T07:05:21.924Z,1286.17
2023-05-06T07:06:21.820Z,1286.17
2023-05-06T07:07:22.115Z,1286.17
2023-05-06T07:08:21.796Z,1286.17
2023-05-06T07:09:21.736Z,1286.17
2023-05-06T07:10:21.769Z,1286.17
2023-05-06T07:11:21.643Z,1286.17
2023-05-06T07:12:21.579Z,1286.17
2023-05-06T07:13:21.502Z,1286.17
2023-05-06T07:14:21.586Z,1286.17
2023-05-06T07:15:21.363Z,1286.17
2023-05-06T07:16:21.346Z,1286.17
2023-05-06T07:17:21.535Z,1286.17
2023-05-06T07:18:21.210Z,1286.17
2023-05-06T07:19:21.133Z,1286.17
2023-05-06T07:20:21.086Z,1286.17
2023-05-06T07:21:21.076Z,1286.17
2023-05-06T07:22:20.983Z,1286.17
2023-05-06T07:23:20.946Z,1286.17
2023-05-06T07:24:21.182Z,1286.17
2023-05-06T07:25:20.959Z,1286.17
2023-05-06T07:26:20.770Z,1286.17
2023-05-06T07:27:20.742Z,1286.17
2023-05-06T07:28:20.697Z,1286.17
2023-05-06T07:29:21.099Z,1286.17
2023-05-06T07:30:23.026Z,1286.17
2023-05-06T07:31:20.671Z,1286.17
2023-05-06T07:32:20.503Z,1286.17
2023-05-06T07:33:20.400Z,1286.17
2023-05-06T07:34:20.343Z,1286.17
2023-05-06T07:35:20.308Z,1286.17
2023-05-06T07:36:21.325Z,1286.17
2023-05-06T07:37:20.142Z,1286.17
2023-05-06T07:38:20.608Z,1286.17
2023-05-06T07:39:20.045Z,1286.17
2023-05-06T07:40:19.946Z,1286.17
2023-05-06T07:41:19.855Z,1286.17
2023-05-06T07:42:19.789Z,1286.17
2023-05-06T07:43:19.736Z,1286.17
2023-05-06T07:44:19.660Z,1286.17
2023-05-06T07:45:19.740Z,1286.17
2023-05-06T07:46:19.505Z,1286.17
2023-05-06T07:47:19.403Z,1286.17
2023-05-06T07:48:20.164Z,1286.17
2023-05-06T07:49:19.273Z,1286.17
2023-05-06T07:50:19.147Z,1286.17
2023-05-06T07:51:19.176Z,1286.17
2023-05-06T07:52:19.057Z,1286.17
2023-05-06T07:53:18.941Z,1286.17
2023-05-06T07:54:18.872Z,1286.17
2023-05-06T07:55:18.793Z,1286.17
2023-05-06T07:56:18.705Z,1286.17
2023-05-06T07:57:18.729Z,1286.17
2023-05-06T07:58:18.671Z,1286.17
2023-05-06T07:59:18.534Z,1286.17
2023-05-06T08:00:18.503Z,1286.17
2023-05-06T08:01:18.337Z,1286.17
2023-05-06T08:02:18.301Z,1286.17
2023-05-06T08:03:18.322Z,1286.17
2023-05-06T08:04:18.190Z,1286.17
2023-05-06T08:05:18.193Z,1286.17
2023-05-06T08:06:17.949Z,1286.17
2023-05-06T08:07:17.866Z,1286.17
2023-05-06T08:08:17.804Z,1286.17
2023-05-06T08:09:23.082Z,1286.17
2023-05-06T08:10:18.727Z,1286.17
2023-05-06T08:11:19.361Z,1286.17
2023-05-06T08:12:17.575Z,1286.17
2023-05-06T08:13:17.494Z,1286.17
2023-05-06T08:14:17.348Z,1286.17
2023-05-06T08:15:17.333Z,1286.17
2023-05-06T08:16:17.249Z,1286.17
2023-05-06T08:17:17.266Z,1286.17
2023-05-06T08:18:22.317Z,1286.17
2023-05-06T08:19:18.041Z,1286.17
2023-05-06T08:20:16.955Z,1286.17
2023-05-06T08:21:16.911Z,1286.17
2023-05-06T08:22:16.810Z,1286.17
2023-05-06T08:23:16.688Z,1286.17
2023-05-06T08:24:16.643Z,1286.17
2023-05-06T08:25:16.515Z,1286.17
2023-05-06T08:26:16.442Z,1286.17
2023-05-06T08:27:16.366Z,1286.17
2023-05-06T08:28:16.351Z,1286.17
2023-05-06T08:29:16.329Z,1286.17
2023-05-06T08:30:16.247Z,1286.17
2023-05-06T08:31:16.153Z,1286.17
2023-05-06T08:32:16.099Z,1286.17
2023-05-06T08:33:15.967Z,1286.17
2023-05-06T08:34:15.892Z,1286.17
2023-05-06T08:35:15.794Z,1286.17
2023-05-06T08:36:15.889Z,1286.17
2023-05-06T08:37:15.666Z,1286.17
2023-05-06T08:38:16.320Z,1286.17
2023-05-06T08:39:15.697Z,1286.17
2023-05-06T08:40:15.478Z,1286.17
2023-05-06T08:41:15.327Z,1286.17
2023-05-06T08:42:15.339Z,1286.17
2023-05-06T08:43:15.209Z,1286.17
2023-05-06T08:44:15.113Z,1286.17
2023-05-06T08:45:15.138Z,1286.17
2023-05-06T08:46:15.065Z,1286.17
2023-05-06T08:47:15.012Z,1286.17
2023-05-06T08:48:14.836Z,1286.17
2023-05-06T08:49:14.761Z,1286.17
2023-05-06T08:50:14.709Z,1286.17
2023-05-06T08:51:14.653Z,1286.17
2023-05-06T08:52:14.512Z,1286.17
2023-05-06T08:53:14.555Z,1286.17
2023-05-06T08:54:14.351Z,1286.17
2023-05-06T08:55:14.417Z,1286.17
2023-05-06T08:56:14.255Z,1286.17
2023-05-06T08:57:14.143Z,1286.17
2023-05-06T08:58:14.045Z,1286.17
2023-05-06T08:59:13.989Z,1286.17
2023-05-06T09:00:13.898Z,1286.17
2023-05-06T09:01:13.998Z,1286.17
2023-05-06T09:02:13.925Z,1286.17
2023-05-06T09:03:13.837Z,1286.17
2023-05-06T09:04:13.575Z,1286.17
2023-05-06T09:05:13.717Z,1286.17
2023-05-06T09:06:13.525Z,1286.17
2023-05-06T09:07:13.305Z,1286.17
2023-05-06T09:08:13.274Z,1286.17
2023-05-06T09:09:13.248Z,1286.17
2023-05-06T09:10:13.054Z,1286.17
2023-05-06T09:11:13.005Z,1286.17
2023-05-06T09:12:12.858Z,1286.17
2023-05-06T09:13:12.902Z,1286.17
2023-05-06T09:14:12.779Z,1286.17
2023-05-06T09:15:13.038Z,1286.17
2023-05-06T09:16:12.533Z,1286.17
2023-05-06T09:17:12.461Z,1286.17
2023-05-06T09:18:12.472Z,1286.17
2023-05-06T09:19:12.307Z,1286.17
2023-05-06T09:20:12.319Z,1286.17
2023-05-06T09:21:12.100Z,1286.17
2023-05-06T09:22:12.114Z,1286.17
2023-05-06T09:23:11.990Z,1286.17
2023-05-06T09:24:12.268Z,1286.17
2023-05-06T09:25:12.191Z,1286.17
2023-05-06T09:26:11.752Z,1286.17
2023-05-06T09:27:13.267Z,1286.17
2023-05-06T09:28:11.560Z,1286.17
2023-05-06T09:29:11.510Z,1286.17
2023-05-06T09:30:11.313Z,1286.17
2023-05-06T09:31:11.246Z,1286.17
2023-05-06T09:32:11.183Z,1286.17
2023-05-06T09:33:11.255Z,1286.17
2023-05-06T09:34:11.002Z,1286.17
2023-05-06T09:35:11.054Z,1286.17
2023-05-06T09:36:10.731Z,1286.17
2023-05-06T09:37:10.805Z,1286.17
2023-05-06T09:38:10.587Z,1286.17
2023-05-06T09:39:10.438Z,1286.17
2023-05-06T09:40:10.456Z,1286.17
2023-05-06T09:41:10.252Z,1286.17
2023-05-06T09:42:10.313Z,1286.17
2023-05-06T09:43:10.061Z,1286.17
2023-05-06T09:44:09.960Z,1286.17
2023-05-06T09:45:10.333Z,1286.17
2023-05-06T09:46:09.869Z,1286.17
2023-05-06T09:47:09.682Z,1286.17
2023-05-06T09:48:09.785Z,1286.17
2023-05-06T09:49:09.871Z,1286.17
2023-05-06T09:50:09.591Z,1286.17
2023-05-06T09:51:09.336Z,1286.17
2023-05-06T09:52:09.181Z,1286.17
2023-05-06T09:53:09.080Z,1286.17
2023-05-06T09:54:09.051Z,1286.17
2023-05-06T09:55:09.153Z,1286.17
2023-05-06T09:56:09.160Z,1286.17
2023-05-06T09:57:08.704Z,1286.17
2023-05-06T09:58:08.616Z,1286.17
2023-05-06T09:59:08.614Z,1286.17
2023-05-06T10:00:08.494Z,1286.17
2023-05-06T10:01:08.400Z,1286.17
2023-05-06T10:02:08.307Z,1286.17
2023-05-06T10:03:08.326Z,1286.17
2023-05-06T10:04:08.386Z,1286.17
2023-05-06T10:05:08.305Z,1286.17
2023-05-06T10:06:08.213Z,1286.17
2023-05-06T10:07:07.823Z,1286.17
2023-05-06T10:08:07.641Z,1286.17
2023-05-06T10:09:07.598Z,1286.17
2023-05-06T10:10:07.447Z,1286.17
2023-05-06T10:11:07.459Z,1286.17
2023-05-06T10:12:07.233Z,1286.17
2023-05-06T10:13:07.189Z,1286.17
2023-05-06T10:14:07.118Z,1286.17
2023-05-06T10:15:07.017Z,1286.17
2023-05-06T10:16:07.689Z,1286.17
2023-05-06T10:17:07.080Z,1286.17
2023-05-06T10:18:06.682Z,1286.17
2023-05-06T10:19:06.769Z,1286.17
2023-05-06T10:20:06.468Z,1286.17
2023-05-06T10:21:06.446Z,1286.17
2023-05-06T10:22:06.259Z,1286.17
2023-05-06T10:23:06.254Z,1286.17
2023-05-06T10:24:06.130Z,1286.17
2023-05-06T10:25:05.925Z,1286.17
2023-05-06T10:26:05.836Z,1286.17
2023-05-06T10:27:05.801Z,1286.17
2023-05-06T10:28:06.657Z,1286.17
2023-05-06T10:29:05.506Z,1286.17
2023-05-06T10:30:05.407Z,1286.17
2023-05-06T10:31:05.445Z,1286.17
2023-05-06T10:32:05.298Z,1286.17
2023-05-06T10:33:05.239Z,1286.17
2023-05-06T10:34:05.076Z,1286.17
2023-05-06T10:35:04.888Z,1286.17
2023-05-06T10:36:04.825Z,1286.17
2023-05-06T10:37:04.903Z,1286.17
2023-05-06T10:38:04.563Z,1286.17
2023-05-06T10:39:04.547Z,1286.17
2023-05-06T10:40:04.376Z,1286.17
2023-05-06T10:41:04.322Z,1286.17
2023-05-06T10:42:04.154Z,1286.17
2023-05-06T10:43:04.052Z,1286.17
2023-05-06T10:44:04.115Z,1286.17
2023-05-06T10:45:03.887Z,1286.17
2023-05-06T10:46:03.978Z,1286.17
2023-05-06T10:47:03.710Z,1286.17
2023-05-06T10:48:03.564Z,1286.17
2023-05-06T10:49:03.401Z,1286.17
2023-05-06T10:50:03.302Z,1286.17
2023-05-06T10:51:03.261Z,1286.17
2023-05-06T10:52:03.082Z,1286.17
2023-05-06T10:53:03.046Z,1286.17
2023-05-06T10:54:02.869Z,1286.17
2023-05-06T10:55:02.763Z,1286.17
2023-05-06T10:56:02.610Z,1286.17
2023-05-06T10:57:02.587Z,1286.17
2023-05-06T10:58:02.380Z,1286.17
2023-05-06T10:59:02.291Z,1286.17
2023-05-06T11:00:02.214Z,1286.17
2023-05-06T11:01:02.042Z,1286.17
2023-05-06T11:02:01.995Z,1286.17
2023-05-06T11:03:01.861Z,1286.17
2023-05-06T11:04:01.802Z,1286.17
2023-05-06T11:05:01.608Z,1286.17
2023-05-06T11:06:01.529Z,1286.17
2023-05-06T11:07:01.316Z,1286.17
2023-05-06T11:08:01.207Z,1286.17
2023-05-06T11:09:01.185Z,1286.17
2023-05-06T11:10:01.044Z,1286.17
2023-05-06T11:11:00.888Z,1286.17
2023-05-06T11:12:00.750Z,1286.17
2023-05-06T11:13:00.755Z,1286.17
2023-05-06T11:14:00.535Z,1286.17
2023-05-06T11:15:00.457Z,1286.17
2023-05-06T11:16:00.329Z,1286.17
2023-05-06T11:17:00.336Z,1286.17
2023-05-06T11:18:00.160Z,1286.17
2023-05-06T11:18:59.897Z,1286.17
2023-05-06T11:19:59.768Z,1286.17
2023-05-06T11:20:59.980Z,1286.17
2023-05-06T11:21:59.560Z,1286.17
2023-05-06T11:22:59.417Z,1286.17
2023-05-06T11:23:59.311Z,1286.17
2023-05-06T11:24:59.222Z,1286.17
2023-05-06T11:25:59.460Z,1286.17
2023-05-06T11:26:58.953Z,1286.17
2023-05-06T11:27:58.982Z,1286.17
2023-05-06T11:28:58.661Z,1286.17
2023-05-06T11:29:58.615Z,1286.17
2023-05-06T11:30:58.506Z,1286.17
2023-05-06T11:31:58.271Z,1286.17
2023-05-06T11:32:58.175Z,1286.17
2023-05-06T11:33:58.049Z,1286.17
2023-05-06T11:34:58.000Z,1286.17
2023-05-06T11:35:57.924Z,1286.17
2023-05-06T11:36:57.654Z,1286.17
2023-05-06T11:37:57.596Z,1286.17
2023-05-06T11:38:57.418Z,1286.17
2023-05-06T11:39:57.312Z,1286.17
2023-05-06T11:40:57.406Z,1286.17
2023-05-06T11:41:57.250Z,1286.17
2023-05-06T11:42:56.917Z,1286.17
2023-05-06T11:43:56.776Z,1286.17
2023-05-06T11:44:56.729Z,1286.17
2023-05-06T11:45:56.602Z,1286.17
2023-05-06T11:46:56.451Z,1286.17
2023-05-06T11:47:56.295Z,1286.17
2023-05-06T11:48:56.158Z,1286.17
2023-05-06T11:49:56.017Z,1286.17
2023-05-06T11:50:55.872Z,1286.17
2023-05-06T11:51:55.795Z,1286.17
2023-05-06T11:52:55.614Z,1286.17
2023-05-06T11:53:55.485Z,1286.17
2023-05-06T11:54:55.434Z,1286.17
2023-05-06T11:55:55.241Z,1286.17
2023-05-06T11:56:55.249Z,1286.17
2023-05-06T11:57:56.008Z,1286.17
2023-05-06T11:58:54.987Z,1286.17
2023-05-06T11:59:54.715Z,1286.17
2023-05-06T12:00:54.630Z,1286.17
2023-05-06T12:01:54.508Z,1286.17
2023-05-06T12:02:54.418Z,1286.17
2023-05-06T12:03:54.354Z,1286.17
2023-05-06T12:04:54.193Z,1286.17